sensor_id;sensor_type;location;lat;lon;timestamp;temperature;humidity
24085;DHT22;12268;52.110;5.548;2023-03-31T00:00:31;12.20;99.90
24085;DHT22;12268;52.110;5.548;2023-03-31T00:02:56;12.40;99.90
24085;DHT22;12268;52.110;5.548;2023-03-31T00:05:26;12.50;99.90
24085;DHT22;12268;52.110;5.548;2023-03-31T00:07:56;12.50;99.90
24085;DHT22;12268;52.110;5.548;2023-03-31T00:10:29;12.50;99.90
24085;DHT22;12268;52.110;5.548;2023-03-31T00:12:58;12.60;99.90
24085;DHT22;12268;52.110;5.548;2023-03-31T00:15:24;12.60;99.90
24085;DHT22;12268;52.110;5.548;2023-03-31T00:17:50;12.80;99.90
24085;DHT22;12268;52.110;5.548;2023-03-31T00:20:15;13.00;99.90
24085;DHT22;12268;52.110;5.548;2023-03-31T00:22:41;12.90;99.90
24085;DHT22;12268;52.110;5.548;2023-03-31T00:25:11;13.00;99.90
24085;DHT22;12268;52.110;5.548;2023-03-31T00:27:37;13.10;99.90
24085;DHT22;12268;52.110;5.548;2023-03-31T00:30:03;12.90;99.90
24085;DHT22;12268;52.110;5.548;2023-03-31T00:32:29;12.90;99.90
24085;DHT22;12268;52.110;5.548;2023-03-31T00:34:54;12.90;99.90
24085;DHT22;12268;52.110;5.548;2023-03-31T00:37:20;12.80;99.90
24085;DHT22;12268;52.110;5.548;2023-03-31T00:39:46;12.90;99.90
24085;DHT22;12268;52.110;5.548;2023-03-31T00:42:12;12.90;99.90
24085;DHT22;12268;52.110;5.548;2023-03-31T00:47:39;12.90;99.90
24085;DHT22;12268;52.110;5.548;2023-03-31T00:50:18;13.00;99.90
24085;DHT22;12268;52.110;5.548;2023-03-31T00:52:50;12.90;99.90
24085;DHT22;12268;52.110;5.548;2023-03-31T00:55:26;12.80;99.90
24085;DHT22;12268;52.110;5.548;2023-03-31T00:57:53;12.70;99.90
24085;DHT22;12268;52.110;5.548;2023-03-31T01:00:19;12.70;99.90
24085;DHT22;12268;52.110;5.548;2023-03-31T01:02:50;12.80;99.90
24085;DHT22;12268;52.110;5.548;2023-03-31T01:05:26;12.70;99.90
24085;DHT22;12268;52.110;5.548;2023-03-31T01:07:53;12.70;99.90
24085;DHT22;12268;52.110;5.548;2023-03-31T01:10:20;12.70;99.90
24085;DHT22;12268;52.110;5.548;2023-03-31T01:12:49;12.70;99.90
24085;DHT22;12268;52.110;5.548;2023-03-31T01:15:16;12.60;99.90
24085;DHT22;12268;52.110;5.548;2023-03-31T01:17:43;12.50;99.90
24085;DHT22;12268;52.110;5.548;2023-03-31T01:20:18;12.60;99.90
24085;DHT22;12268;52.110;5.548;2023-03-31T01:47:56;12.80;99.90
24085;DHT22;12268;52.110;5.548;2023-03-31T01:53:14;12.70;99.90
24085;DHT22;12268;52.110;5.548;2023-03-31T01:56:03;12.80;99.90
24085;DHT22;12268;52.110;5.548;2023-03-31T01:58:41;13.00;99.90
24085;DHT22;12268;52.110;5.548;2023-03-31T02:01:27;13.00;99.90
24085;DHT22;12268;52.110;5.548;2023-03-31T02:04:09;13.10;99.90
24085;DHT22;12268;52.110;5.548;2023-03-31T02:06:40;12.90;99.90
24085;DHT22;12268;52.110;5.548;2023-03-31T02:09:14;12.80;99.90
24085;DHT22;12268;52.110;5.548;2023-03-31T02:11:42;12.60;99.90
24085;DHT22;12268;52.110;5.548;2023-03-31T02:14:11;12.70;99.90
24085;DHT22;12268;52.110;5.548;2023-03-31T02:16:41;12.50;99.90
24085;DHT22;12268;52.110;5.548;2023-03-31T02:19:12;12.40;99.90
24085;DHT22;12268;52.110;5.548;2023-03-31T02:21:44;12.40;99.90
24085;DHT22;12268;52.110;5.548;2023-03-31T02:24:14;12.40;99.90
24085;DHT22;12268;52.110;5.548;2023-03-31T02:27:00;12.30;99.90
24085;DHT22;12268;52.110;5.548;2023-03-31T02:29:28;12.40;99.90
24085;DHT22;12268;52.110;5.548;2023-03-31T02:32:24;12.40;99.90
24085;DHT22;12268;52.110;5.548;2023-03-31T02:34:54;12.40;99.90
24085;DHT22;12268;52.110;5.548;2023-03-31T02:37:21;12.50;99.90
24085;DHT22;12268;52.110;5.548;2023-03-31T02:39:49;12.40;99.90
24085;DHT22;12268;52.110;5.548;2023-03-31T02:42:17;12.50;99.90
24085;DHT22;12268;52.110;5.548;2023-03-31T02:44:43;12.60;99.90
24085;DHT22;12268;52.110;5.548;2023-03-31T02:47:11;12.60;99.90
24085;DHT22;12268;52.110;5.548;2023-03-31T02:49:40;12.50;99.90
24085;DHT22;12268;52.110;5.548;2023-03-31T02:52:18;12.40;99.90
24085;DHT22;12268;52.110;5.548;2023-03-31T02:57:32;12.30;99.90
24085;DHT22;12268;52.110;5.548;2023-03-31T03:03:00;12.00;99.90
24085;DHT22;12268;52.110;5.548;2023-03-31T03:08:26;12.00;99.90
24085;DHT22;12268;52.110;5.548;2023-03-31T03:13:46;12.20;99.90
24085;DHT22;12268;52.110;5.548;2023-03-31T03:16:23;12.20;99.90
24085;DHT22;12268;52.110;5.548;2023-03-31T03:19:04;12.20;99.90
24085;DHT22;12268;52.110;5.548;2023-03-31T03:21:31;12.20;99.90
24085;DHT22;12268;52.110;5.548;2023-03-31T03:23:57;12.20;99.90
24085;DHT22;12268;52.110;5.548;2023-03-31T03:26:24;12.20;99.90
24085;DHT22;12268;52.110;5.548;2023-03-31T03:28:53;12.30;99.90
24085;DHT22;12268;52.110;5.548;2023-03-31T03:31:19;12.30;99.90
24085;DHT22;12268;52.110;5.548;2023-03-31T03:33:45;12.50;99.90
24085;DHT22;12268;52.110;5.548;2023-03-31T03:36:11;12.70;99.90
24085;DHT22;12268;52.110;5.548;2023-03-31T03:38:36;12.70;99.90
24085;DHT22;12268;52.110;5.548;2023-03-31T03:41:02;12.60;99.90
24085;DHT22;12268;52.110;5.548;2023-03-31T03:43:28;12.60;99.90
24085;DHT22;12268;52.110;5.548;2023-03-31T03:45:54;12.60;99.90
24085;DHT22;12268;52.110;5.548;2023-03-31T03:48:19;12.60;99.90
24085;DHT22;12268;52.110;5.548;2023-03-31T03:50:46;12.70;99.90
24085;DHT22;12268;52.110;5.548;2023-03-31T03:53:13;12.70;99.90
24085;DHT22;12268;52.110;5.548;2023-03-31T03:55:38;12.60;99.90
24085;DHT22;12268;52.110;5.548;2023-03-31T03:58:04;12.70;99.90
24085;DHT22;12268;52.110;5.548;2023-03-31T04:00:30;12.70;99.90
24085;DHT22;12268;52.110;5.548;2023-03-31T04:02:55;12.70;99.90
24085;DHT22;12268;52.110;5.548;2023-03-31T04:05:21;12.50;99.90
24085;DHT22;12268;52.110;5.548;2023-03-31T04:07:47;12.40;99.90
24085;DHT22;12268;52.110;5.548;2023-03-31T04:10:12;12.40;99.90
24085;DHT22;12268;52.110;5.548;2023-03-31T04:12:38;12.30;99.90
24085;DHT22;12268;52.110;5.548;2023-03-31T04:15:04;12.20;99.90
24085;DHT22;12268;52.110;5.548;2023-03-31T04:17:30;12.20;99.90
24085;DHT22;12268;52.110;5.548;2023-03-31T04:20:09;12.20;99.90
24085;DHT22;12268;52.110;5.548;2023-03-31T04:22:36;12.30;99.90
24085;DHT22;12268;52.110;5.548;2023-03-31T04:25:09;12.40;99.90
24085;DHT22;12268;52.110;5.548;2023-03-31T04:27:50;12.60;99.90
24085;DHT22;12268;52.110;5.548;2023-03-31T04:30:23;12.60;99.90
24085;DHT22;12268;52.110;5.548;2023-03-31T04:32:50;12.80;99.90
24085;DHT22;12268;52.110;5.548;2023-03-31T04:35:18;12.70;99.90
24085;DHT22;12268;52.110;5.548;2023-03-31T04:37:46;12.50;99.90
24085;DHT22;12268;52.110;5.548;2023-03-31T04:40:11;12.60;99.90
24085;DHT22;12268;52.110;5.548;2023-03-31T04:42:37;12.90;99.90
24085;DHT22;12268;52.110;5.548;2023-03-31T04:45:03;13.00;99.90
24085;DHT22;12268;52.110;5.548;2023-03-31T04:47:28;13.20;99.90
24085;DHT22;12268;52.110;5.548;2023-03-31T04:49:54;13.30;99.90
24085;DHT22;12268;52.110;5.548;2023-03-31T04:52:20;13.10;99.90
24085;DHT22;12268;52.110;5.548;2023-03-31T04:54:45;12.90;99.90
24085;DHT22;12268;52.110;5.548;2023-03-31T04:57:11;12.60;99.90
24085;DHT22;12268;52.110;5.548;2023-03-31T04:59:37;12.70;99.90
24085;DHT22;12268;52.110;5.548;2023-03-31T05:02:03;12.70;99.90
24085;DHT22;12268;52.110;5.548;2023-03-31T05:04:28;12.70;99.90
24085;DHT22;12268;52.110;5.548;2023-03-31T05:06:54;12.50;99.90
24085;DHT22;12268;52.110;5.548;2023-03-31T05:09:19;12.40;99.90
24085;DHT22;12268;52.110;5.548;2023-03-31T05:11:45;12.30;99.90
24085;DHT22;12268;52.110;5.548;2023-03-31T05:14:10;12.40;99.90
24085;DHT22;12268;52.110;5.548;2023-03-31T05:16:36;12.40;99.90
24085;DHT22;12268;52.110;5.548;2023-03-31T05:19:02;12.40;99.90
24085;DHT22;12268;52.110;5.548;2023-03-31T05:21:27;12.30;99.90
24085;DHT22;12268;52.110;5.548;2023-03-31T05:23:55;12.30;99.90
24085;DHT22;12268;52.110;5.548;2023-03-31T05:26:21;12.30;99.90
24085;DHT22;12268;52.110;5.548;2023-03-31T05:28:52;12.30;99.90
24085;DHT22;12268;52.110;5.548;2023-03-31T05:31:18;12.40;99.90
24085;DHT22;12268;52.110;5.548;2023-03-31T05:33:44;12.40;99.90
24085;DHT22;12268;52.110;5.548;2023-03-31T05:36:15;12.30;99.90
24085;DHT22;12268;52.110;5.548;2023-03-31T05:38:41;12.30;99.90
24085;DHT22;12268;52.110;5.548;2023-03-31T05:41:08;12.30;99.90
24085;DHT22;12268;52.110;5.548;2023-03-31T05:43:34;12.30;99.90
24085;DHT22;12268;52.110;5.548;2023-03-31T05:46:00;12.20;99.90
24085;DHT22;12268;52.110;5.548;2023-03-31T05:48:26;12.20;99.90
24085;DHT22;12268;52.110;5.548;2023-03-31T05:50:56;12.30;99.90
24085;DHT22;12268;52.110;5.548;2023-03-31T05:53:22;12.50;99.90
24085;DHT22;12268;52.110;5.548;2023-03-31T05:55:47;12.50;99.90
24085;DHT22;12268;52.110;5.548;2023-03-31T05:58:13;12.70;99.90
24085;DHT22;12268;52.110;5.548;2023-03-31T06:00:38;12.70;99.90
24085;DHT22;12268;52.110;5.548;2023-03-31T06:03:04;12.70;99.90
24085;DHT22;12268;52.110;5.548;2023-03-31T06:05:32;12.60;99.90
24085;DHT22;12268;52.110;5.548;2023-03-31T06:07:59;12.50;99.90
24085;DHT22;12268;52.110;5.548;2023-03-31T06:10:24;12.40;99.90
24085;DHT22;12268;52.110;5.548;2023-03-31T06:12:50;12.40;99.90
24085;DHT22;12268;52.110;5.548;2023-03-31T06:15:16;12.40;99.90
24085;DHT22;12268;52.110;5.548;2023-03-31T06:17:41;12.30;99.90
24085;DHT22;12268;52.110;5.548;2023-03-31T06:20:07;12.30;99.90
24085;DHT22;12268;52.110;5.548;2023-03-31T06:22:33;12.10;99.90
24085;DHT22;12268;52.110;5.548;2023-03-31T06:24:58;12.20;99.90
24085;DHT22;12268;52.110;5.548;2023-03-31T06:27:24;12.40;99.90
24085;DHT22;12268;52.110;5.548;2023-03-31T06:29:49;12.30;99.90
24085;DHT22;12268;52.110;5.548;2023-03-31T06:32:15;12.30;99.90
24085;DHT22;12268;52.110;5.548;2023-03-31T06:34:40;12.20;99.90
24085;DHT22;12268;52.110;5.548;2023-03-31T06:37:06;12.20;99.90
24085;DHT22;12268;52.110;5.548;2023-03-31T06:39:31;12.40;99.90
24085;DHT22;12268;52.110;5.548;2023-03-31T06:41:57;12.40;99.90
24085;DHT22;12268;52.110;5.548;2023-03-31T06:44:22;12.30;99.90
24085;DHT22;12268;52.110;5.548;2023-03-31T06:46:48;12.30;99.90
24085;DHT22;12268;52.110;5.548;2023-03-31T06:49:14;12.30;99.90
24085;DHT22;12268;52.110;5.548;2023-03-31T06:51:40;12.30;99.90
24085;DHT22;12268;52.110;5.548;2023-03-31T06:54:05;12.40;99.90
24085;DHT22;12268;52.110;5.548;2023-03-31T06:56:31;12.40;99.90
24085;DHT22;12268;52.110;5.548;2023-03-31T06:58:57;12.30;99.90
24085;DHT22;12268;52.110;5.548;2023-03-31T07:01:22;12.30;99.90
24085;DHT22;12268;52.110;5.548;2023-03-31T07:03:48;12.20;99.90
24085;DHT22;12268;52.110;5.548;2023-03-31T07:06:14;12.00;99.90
24085;DHT22;12268;52.110;5.548;2023-03-31T07:08:39;12.10;99.90
24085;DHT22;12268;52.110;5.548;2023-03-31T07:11:05;12.20;99.90
24085;DHT22;12268;52.110;5.548;2023-03-31T07:13:31;12.20;99.90
24085;DHT22;12268;52.110;5.548;2023-03-31T07:15:56;12.30;99.90
24085;DHT22;12268;52.110;5.548;2023-03-31T07:18:22;12.20;99.90
24085;DHT22;12268;52.110;5.548;2023-03-31T07:20:58;12.20;99.90
24085;DHT22;12268;52.110;5.548;2023-03-31T07:23:24;12.20;99.90
24085;DHT22;12268;52.110;5.548;2023-03-31T07:25:50;12.40;99.90
24085;DHT22;12268;52.110;5.548;2023-03-31T07:28:17;12.60;99.90
24085;DHT22;12268;52.110;5.548;2023-03-31T07:30:45;12.40;99.90
24085;DHT22;12268;52.110;5.548;2023-03-31T07:33:13;12.40;99.90
24085;DHT22;12268;52.110;5.548;2023-03-31T07:46:00;12.80;99.90
24085;DHT22;12268;52.110;5.548;2023-03-31T07:48:26;12.60;99.90
24085;DHT22;12268;52.110;5.548;2023-03-31T07:50:53;12.70;99.90
24085;DHT22;12268;52.110;5.548;2023-03-31T07:53:19;12.80;99.90
24085;DHT22;12268;52.110;5.548;2023-03-31T07:55:46;12.90;99.90
24085;DHT22;12268;52.110;5.548;2023-03-31T07:58:12;12.90;99.90
24085;DHT22;12268;52.110;5.548;2023-03-31T08:00:37;13.00;99.90
24085;DHT22;12268;52.110;5.548;2023-03-31T08:03:03;13.10;99.90
24085;DHT22;12268;52.110;5.548;2023-03-31T08:05:28;13.10;99.90
24085;DHT22;12268;52.110;5.548;2023-03-31T08:07:54;13.10;99.90
24085;DHT22;12268;52.110;5.548;2023-03-31T08:10:23;13.00;99.90
24085;DHT22;12268;52.110;5.548;2023-03-31T08:12:49;13.00;99.90
24085;DHT22;12268;52.110;5.548;2023-03-31T08:15:14;13.00;99.90
24085;DHT22;12268;52.110;5.548;2023-03-31T08:17:40;13.10;99.90
24085;DHT22;12268;52.110;5.548;2023-03-31T08:20:07;13.20;99.90
24085;DHT22;12268;52.110;5.548;2023-03-31T08:22:39;13.20;99.90
24085;DHT22;12268;52.110;5.548;2023-03-31T08:25:06;13.30;99.90
24085;DHT22;12268;52.110;5.548;2023-03-31T08:27:37;13.30;99.90
24085;DHT22;12268;52.110;5.548;2023-03-31T08:30:03;13.20;99.90
24085;DHT22;12268;52.110;5.548;2023-03-31T08:32:31;13.30;99.90
24085;DHT22;12268;52.110;5.548;2023-03-31T08:34:57;13.30;99.90
24085;DHT22;12268;52.110;5.548;2023-03-31T08:37:22;13.40;99.90
24085;DHT22;12268;52.110;5.548;2023-03-31T08:39:48;13.40;99.90
24085;DHT22;12268;52.110;5.548;2023-03-31T08:42:36;13.30;99.90
24085;DHT22;12268;52.110;5.548;2023-03-31T08:47:34;13.10;99.90
24085;DHT22;12268;52.110;5.548;2023-03-31T08:50:14;12.90;99.90
24085;DHT22;12268;52.110;5.548;2023-03-31T08:52:49;12.90;99.90
24085;DHT22;12268;52.110;5.548;2023-03-31T08:55:21;13.10;99.90
24085;DHT22;12268;52.110;5.548;2023-03-31T08:57:54;13.20;99.90
24085;DHT22;12268;52.110;5.548;2023-03-31T09:00:22;13.30;99.90
24085;DHT22;12268;52.110;5.548;2023-03-31T09:03:00;13.30;99.90
24085;DHT22;12268;52.110;5.548;2023-03-31T09:05:40;13.30;99.90
24085;DHT22;12268;52.110;5.548;2023-03-31T09:08:30;13.30;99.90
24085;DHT22;12268;52.110;5.548;2023-03-31T09:19:01;13.30;99.90
24085;DHT22;12268;52.110;5.548;2023-03-31T09:21:40;13.50;99.90
24085;DHT22;12268;52.110;5.548;2023-03-31T09:24:14;13.50;99.90
24085;DHT22;12268;52.110;5.548;2023-03-31T09:26:50;13.40;99.90
24085;DHT22;12268;52.110;5.548;2023-03-31T09:29:27;13.60;99.90
24085;DHT22;12268;52.110;5.548;2023-03-31T09:31:59;13.70;99.90
24085;DHT22;12268;52.110;5.548;2023-03-31T09:34:28;13.90;99.90
24085;DHT22;12268;52.110;5.548;2023-03-31T09:36:54;14.00;99.90
24085;DHT22;12268;52.110;5.548;2023-03-31T09:39:20;14.10;99.90
24085;DHT22;12268;52.110;5.548;2023-03-31T09:41:48;14.20;99.90
24085;DHT22;12268;52.110;5.548;2023-03-31T09:44:37;14.40;99.90
24085;DHT22;12268;52.110;5.548;2023-03-31T09:47:06;14.20;99.90
24085;DHT22;12268;52.110;5.548;2023-03-31T09:49:34;14.10;99.90
24085;DHT22;12268;52.110;5.548;2023-03-31T09:54:35;14.10;99.90
24085;DHT22;12268;52.110;5.548;2023-03-31T09:57:01;14.00;99.90
24085;DHT22;12268;52.110;5.548;2023-03-31T09:59:34;14.10;99.90
24085;DHT22;12268;52.110;5.548;2023-03-31T10:04:56;14.30;99.90
24085;DHT22;12268;52.110;5.548;2023-03-31T10:07:22;14.30;99.90
24085;DHT22;12268;52.110;5.548;2023-03-31T10:09:50;14.40;99.90
24085;DHT22;12268;52.110;5.548;2023-03-31T10:12:19;14.40;99.90
24085;DHT22;12268;52.110;5.548;2023-03-31T10:14:50;14.40;99.90
24085;DHT22;12268;52.110;5.548;2023-03-31T10:17:21;14.50;99.90
24085;DHT22;12268;52.110;5.548;2023-03-31T10:19:53;14.50;99.90
24085;DHT22;12268;52.110;5.548;2023-03-31T10:24:49;15.10;99.90
24085;DHT22;12268;52.110;5.548;2023-03-31T10:27:27;15.40;99.90
24085;DHT22;12268;52.110;5.548;2023-03-31T10:29:55;15.70;99.90
24085;DHT22;12268;52.110;5.548;2023-03-31T10:32:26;15.80;99.90
24085;DHT22;12268;52.110;5.548;2023-03-31T10:34:57;16.00;99.90
24085;DHT22;12268;52.110;5.548;2023-03-31T10:37:26;16.40;99.90
24085;DHT22;12268;52.110;5.548;2023-03-31T10:43:24;17.30;99.90
24085;DHT22;12268;52.110;5.548;2023-03-31T10:45:52;16.80;99.90
24085;DHT22;12268;52.110;5.548;2023-03-31T10:48:30;16.40;99.90
24085;DHT22;12268;52.110;5.548;2023-03-31T10:51:10;16.30;99.90
24085;DHT22;12268;52.110;5.548;2023-03-31T10:53:41;16.00;99.90
24085;DHT22;12268;52.110;5.548;2023-03-31T10:56:28;16.00;99.90
24085;DHT22;12268;52.110;5.548;2023-03-31T11:16:10;14.80;99.90
24085;DHT22;12268;52.110;5.548;2023-03-31T11:23:51;14.70;99.90
24085;DHT22;12268;52.110;5.548;2023-03-31T11:31:47;14.40;99.90
24085;DHT22;12268;52.110;5.548;2023-03-31T11:37:32;14.20;99.90
24085;DHT22;12268;52.110;5.548;2023-03-31T11:42:53;14.00;99.90
24085;DHT22;12268;52.110;5.548;2023-03-31T11:45:24;14.00;99.90
24085;DHT22;12268;52.110;5.548;2023-03-31T11:47:56;14.00;99.90
24085;DHT22;12268;52.110;5.548;2023-03-31T11:50:29;13.80;99.90
24085;DHT22;12268;52.110;5.548;2023-03-31T11:52:59;13.70;99.90
24085;DHT22;12268;52.110;5.548;2023-03-31T11:55:28;13.70;99.90
24085;DHT22;12268;52.110;5.548;2023-03-31T11:58:08;13.70;99.90
24085;DHT22;12268;52.110;5.548;2023-03-31T12:00:43;13.70;99.90
24085;DHT22;12268;52.110;5.548;2023-03-31T12:06:13;14.20;99.90
24085;DHT22;12268;52.110;5.548;2023-03-31T12:09:22;14.40;99.90
24085;DHT22;12268;52.110;5.548;2023-03-31T12:11:54;14.50;99.90
24085;DHT22;12268;52.110;5.548;2023-03-31T12:14:30;14.60;99.90
24085;DHT22;12268;52.110;5.548;2023-03-31T12:17:03;14.80;99.90
24085;DHT22;12268;52.110;5.548;2023-03-31T12:19:44;14.90;99.90
24085;DHT22;12268;52.110;5.548;2023-03-31T12:24:45;14.10;99.90
24085;DHT22;12268;52.110;5.548;2023-03-31T12:27:32;13.70;99.90
24085;DHT22;12268;52.110;5.548;2023-03-31T12:30:10;13.40;99.90
24085;DHT22;12268;52.110;5.548;2023-03-31T12:32:40;13.10;99.90
24085;DHT22;12268;52.110;5.548;2023-03-31T12:35:14;13.10;99.90
24085;DHT22;12268;52.110;5.548;2023-03-31T12:40:55;13.30;99.90
24085;DHT22;12268;52.110;5.548;2023-03-31T12:43:54;13.40;99.90
24085;DHT22;12268;52.110;5.548;2023-03-31T12:47:02;13.40;99.90
24085;DHT22;12268;52.110;5.548;2023-03-31T12:57:27;13.40;99.90
24085;DHT22;12268;52.110;5.548;2023-03-31T13:02:41;13.70;99.90
24085;DHT22;12268;52.110;5.548;2023-03-31T13:08:00;14.40;99.90
24085;DHT22;12268;52.110;5.548;2023-03-31T13:10:28;14.60;99.90
24085;DHT22;12268;52.110;5.548;2023-03-31T13:15:57;14.40;99.90
24085;DHT22;12268;52.110;5.548;2023-03-31T13:18:32;14.70;99.90
24085;DHT22;12268;52.110;5.548;2023-03-31T13:20:59;15.00;99.90
24085;DHT22;12268;52.110;5.548;2023-03-31T13:23:26;15.10;99.90
24085;DHT22;12268;52.110;5.548;2023-03-31T13:25:56;14.90;99.90
24085;DHT22;12268;52.110;5.548;2023-03-31T13:31:06;14.60;99.90
24085;DHT22;12268;52.110;5.548;2023-03-31T13:33:58;14.30;99.90
24085;DHT22;12268;52.110;5.548;2023-03-31T13:50:34;14.30;99.90
24085;DHT22;12268;52.110;5.548;2023-03-31T13:56:25;13.60;99.90
24085;DHT22;12268;52.110;5.548;2023-03-31T13:59:17;13.40;99.90
24085;DHT22;12268;52.110;5.548;2023-03-31T14:06:58;13.20;99.90
24085;DHT22;12268;52.110;5.548;2023-03-31T14:09:33;13.10;99.90
24085;DHT22;12268;52.110;5.548;2023-03-31T14:12:00;13.20;99.90
24085;DHT22;12268;52.110;5.548;2023-03-31T14:14:26;13.30;99.90
24085;DHT22;12268;52.110;5.548;2023-03-31T14:16:56;13.20;99.90
24085;DHT22;12268;52.110;5.548;2023-03-31T14:24:54;13.30;99.90
24085;DHT22;12268;52.110;5.548;2023-03-31T14:27:36;13.50;99.90
24085;DHT22;12268;52.110;5.548;2023-03-31T14:38:20;13.50;99.90
24085;DHT22;12268;52.110;5.548;2023-03-31T14:40:48;13.30;99.90
24085;DHT22;12268;52.110;5.548;2023-03-31T14:43:20;13.00;99.90
24085;DHT22;12268;52.110;5.548;2023-03-31T14:45:46;12.80;99.90
24085;DHT22;12268;52.110;5.548;2023-03-31T14:48:14;12.70;99.90
24085;DHT22;12268;52.110;5.548;2023-03-31T14:50:44;12.80;99.90
24085;DHT22;12268;52.110;5.548;2023-03-31T14:53:15;12.60;99.90
24085;DHT22;12268;52.110;5.548;2023-03-31T14:55:42;12.50;99.90
24085;DHT22;12268;52.110;5.548;2023-03-31T14:58:13;12.60;99.90
24085;DHT22;12268;52.110;5.548;2023-03-31T15:00:40;12.70;99.90
24085;DHT22;12268;52.110;5.548;2023-03-31T15:03:08;12.80;99.90
24085;DHT22;12268;52.110;5.548;2023-03-31T15:05:39;12.90;99.90
24085;DHT22;12268;52.110;5.548;2023-03-31T15:08:17;13.10;99.90
24085;DHT22;12268;52.110;5.548;2023-03-31T15:10:48;13.40;99.90
24085;DHT22;12268;52.110;5.548;2023-03-31T15:13:41;13.60;99.90
24085;DHT22;12268;52.110;5.548;2023-03-31T15:18:56;13.70;99.90
24085;DHT22;12268;52.110;5.548;2023-03-31T15:21:24;13.70;99.90
24085;DHT22;12268;52.110;5.548;2023-03-31T15:23:57;13.70;99.90
24085;DHT22;12268;52.110;5.548;2023-03-31T15:26:31;13.60;99.90
24085;DHT22;12268;52.110;5.548;2023-03-31T15:29:06;13.40;99.90
24085;DHT22;12268;52.110;5.548;2023-03-31T15:31:33;13.60;99.90
24085;DHT22;12268;52.110;5.548;2023-03-31T15:33:59;13.50;99.90
24085;DHT22;12268;52.110;5.548;2023-03-31T15:36:26;13.30;99.90
24085;DHT22;12268;52.110;5.548;2023-03-31T15:38:57;13.00;99.90
24085;DHT22;12268;52.110;5.548;2023-03-31T15:41:28;13.00;99.90
24085;DHT22;12268;52.110;5.548;2023-03-31T15:47:10;13.10;99.90
24085;DHT22;12268;52.110;5.548;2023-03-31T15:49:36;12.90;99.90
24085;DHT22;12268;52.110;5.548;2023-03-31T15:52:30;12.90;99.90
24085;DHT22;12268;52.110;5.548;2023-03-31T15:54:57;12.90;99.90
24085;DHT22;12268;52.110;5.548;2023-03-31T15:57:31;12.80;99.90
24085;DHT22;12268;52.110;5.548;2023-03-31T15:59:56;13.00;99.90
24085;DHT22;12268;52.110;5.548;2023-03-31T16:02:37;13.00;99.90
24085;DHT22;12268;52.110;5.548;2023-03-31T16:05:03;12.60;99.90
24085;DHT22;12268;52.110;5.548;2023-03-31T16:07:32;12.60;99.90
24085;DHT22;12268;52.110;5.548;2023-03-31T16:10:15;12.70;99.90
24085;DHT22;12268;52.110;5.548;2023-03-31T16:12:52;12.90;99.90
24085;DHT22;12268;52.110;5.548;2023-03-31T16:15:22;12.90;99.90
24085;DHT22;12268;52.110;5.548;2023-03-31T16:18:01;12.90;99.90
24085;DHT22;12268;52.110;5.548;2023-03-31T16:20:32;12.60;99.90
24085;DHT22;12268;52.110;5.548;2023-03-31T16:23:10;12.30;99.90
24085;DHT22;12268;52.110;5.548;2023-03-31T16:25:39;12.30;99.90
24085;DHT22;12268;52.110;5.548;2023-03-31T16:28:05;12.20;99.90
24085;DHT22;12268;52.110;5.548;2023-03-31T16:30:37;12.30;99.90
24085;DHT22;12268;52.110;5.548;2023-03-31T16:33:09;12.50;99.90
24085;DHT22;12268;52.110;5.548;2023-03-31T16:35:40;12.50;99.90
24085;DHT22;12268;52.110;5.548;2023-03-31T16:38:08;12.50;99.90
24085;DHT22;12268;52.110;5.548;2023-03-31T16:40:36;12.40;99.90
24085;DHT22;12268;52.110;5.548;2023-03-31T16:43:07;12.40;99.90
24085;DHT22;12268;52.110;5.548;2023-03-31T16:45:33;12.30;99.90
24085;DHT22;12268;52.110;5.548;2023-03-31T16:47:58;12.20;99.90
24085;DHT22;12268;52.110;5.548;2023-03-31T16:50:24;12.00;99.90
24085;DHT22;12268;52.110;5.548;2023-03-31T16:52:50;12.10;99.90
24085;DHT22;12268;52.110;5.548;2023-03-31T16:55:16;12.10;99.90
24085;DHT22;12268;52.110;5.548;2023-03-31T16:57:41;12.10;99.90
24085;DHT22;12268;52.110;5.548;2023-03-31T17:00:07;12.20;99.90
24085;DHT22;12268;52.110;5.548;2023-03-31T17:02:33;12.30;99.90
24085;DHT22;12268;52.110;5.548;2023-03-31T17:04:58;12.40;99.90
24085;DHT22;12268;52.110;5.548;2023-03-31T17:07:24;12.50;99.90
24085;DHT22;12268;52.110;5.548;2023-03-31T17:09:49;12.50;99.90
24085;DHT22;12268;52.110;5.548;2023-03-31T17:12:15;12.70;99.90
24085;DHT22;12268;52.110;5.548;2023-03-31T17:14:41;12.70;99.90
24085;DHT22;12268;52.110;5.548;2023-03-31T17:17:06;12.60;99.90
24085;DHT22;12268;52.110;5.548;2023-03-31T17:19:32;12.40;99.90
24085;DHT22;12268;52.110;5.548;2023-03-31T17:21:57;12.30;99.90
24085;DHT22;12268;52.110;5.548;2023-03-31T17:24:26;12.40;99.90
24085;DHT22;12268;52.110;5.548;2023-03-31T17:26:52;12.40;99.90
24085;DHT22;12268;52.110;5.548;2023-03-31T17:29:17;12.40;99.90
24085;DHT22;12268;52.110;5.548;2023-03-31T17:31:43;12.60;99.90
24085;DHT22;12268;52.110;5.548;2023-03-31T17:34:09;12.60;99.90
24085;DHT22;12268;52.110;5.548;2023-03-31T17:36:35;12.60;99.90
24085;DHT22;12268;52.110;5.548;2023-03-31T17:39:01;12.60;99.90
24085;DHT22;12268;52.110;5.548;2023-03-31T17:41:29;12.60;99.90
24085;DHT22;12268;52.110;5.548;2023-03-31T17:43:54;12.40;99.90
24085;DHT22;12268;52.110;5.548;2023-03-31T17:46:20;12.50;99.90
24085;DHT22;12268;52.110;5.548;2023-03-31T17:48:46;12.50;99.90
24085;DHT22;12268;52.110;5.548;2023-03-31T17:51:14;12.50;99.90
24085;DHT22;12268;52.110;5.548;2023-03-31T17:53:41;12.50;99.90
24085;DHT22;12268;52.110;5.548;2023-03-31T17:56:07;12.40;99.90
24085;DHT22;12268;52.110;5.548;2023-03-31T17:58:33;12.50;99.90
24085;DHT22;12268;52.110;5.548;2023-03-31T18:00:59;12.50;99.90
24085;DHT22;12268;52.110;5.548;2023-03-31T18:03:28;12.40;99.90
24085;DHT22;12268;52.110;5.548;2023-03-31T18:05:54;12.20;99.90
24085;DHT22;12268;52.110;5.548;2023-03-31T18:08:20;12.20;99.90
24085;DHT22;12268;52.110;5.548;2023-03-31T18:10:46;12.20;99.90
24085;DHT22;12268;52.110;5.548;2023-03-31T18:13:11;12.10;99.90
24085;DHT22;12268;52.110;5.548;2023-03-31T18:15:37;12.20;99.90
24085;DHT22;12268;52.110;5.548;2023-03-31T18:18:04;12.20;99.90
24085;DHT22;12268;52.110;5.548;2023-03-31T18:20:30;12.10;99.90
24085;DHT22;12268;52.110;5.548;2023-03-31T18:22:56;12.00;99.90
24085;DHT22;12268;52.110;5.548;2023-03-31T18:25:22;12.00;99.90
24085;DHT22;12268;52.110;5.548;2023-03-31T18:27:47;12.10;99.90
24085;DHT22;12268;52.110;5.548;2023-03-31T18:30:13;12.20;99.90
24085;DHT22;12268;52.110;5.548;2023-03-31T18:32:40;12.00;99.90
24085;DHT22;12268;52.110;5.548;2023-03-31T18:35:06;12.10;99.90
24085;DHT22;12268;52.110;5.548;2023-03-31T18:37:32;12.00;99.90
24085;DHT22;12268;52.110;5.548;2023-03-31T18:39:58;11.90;99.90
24085;DHT22;12268;52.110;5.548;2023-03-31T18:42:23;12.00;99.90